Time;durP1;ratioP1;P1;durP2;ratioP2;P2;SDS_P1;SDS_P2;PMS_P1;PMS_P2;Temp;Humidity;BMP_temperature;BMP_pressure;BME280_temperature;BME280_humidity;BME280_pressure;Samples;Min_cycle;Max_cycle;Signal;HPM_P1;HPM_P2
2022/03/05 00:00:54;;;;;;;4.38;2.13;;;;;;;-2.38;49.67;102411.13;4963815;28;20071;-73
2022/03/05 00:03:20;;;;;;;8.57;2.75;;;;;;;-2.31;49.80;102413.09;4959488;28;20043;-75
2022/03/05 00:05:46;;;;;;;5.10;2.88;;;;;;;-2.29;49.48;102410.56;4952033;28;20902;-74
2022/03/05 00:08:12;;;;;;;8.32;3.33;;;;;;;-2.21;49.05;102415.16;4949954;28;20109;-73
2022/03/05 00:10:38;;;;;;;7.72;2.85;;;;;;;-2.27;49.04;102417.53;4950427;28;20725;-76
2022/03/05 00:13:04;;;;;;;4.90;2.88;;;;;;;-2.30;48.60;102412.25;4952949;28;20130;-76
2022/03/05 00:15:30;;;;;;;5.65;2.75;;;;;;;-2.31;48.92;102413.09;4965324;28;20027;-77
2022/03/05 00:17:56;;;;;;;6.30;3.10;;;;;;;-2.45;48.91;102412.56;4951605;28;20470;-77
2022/03/05 00:20:23;;;;;;;5.60;3.38;;;;;;;-2.46;49.02;102409.94;4938454;28;20101;-76
2022/03/05 00:22:52;;;;;;;5.15;2.60;;;;;;;-2.64;48.90;102408.41;4954129;28;20352;-76
2022/03/05 00:25:18;;;;;;;8.00;3.05;;;;;;;-2.79;49.28;102404.38;4965773;28;20039;-76
2022/03/05 00:27:43;;;;;;;13.95;3.17;;;;;;;-2.90;49.19;102399.69;4948065;28;20039;-74
2022/03/05 00:30:09;;;;;;;6.82;2.88;;;;;;;-2.87;49.56;102401.47;4935720;28;20055;-70
2022/03/05 00:32:35;;;;;;;8.45;2.17;;;;;;;-2.89;49.58;102398.88;4965038;28;20107;-70
2022/03/05 00:35:01;;;;;;;5.18;2.47;;;;;;;-2.82;49.46;102405.13;4964047;28;20058;-70
2022/03/05 00:37:27;;;;;;;6.57;2.72;;;;;;;-2.85;49.94;102402.41;4964776;28;20687;-70
2022/03/05 00:39:52;;;;;;;5.05;2.28;;;;;;;-2.75;49.85;102402.00;4951376;28;20041;-70
2022/03/05 00:42:18;;;;;;;4.65;2.10;;;;;;;-2.77;49.99;102405.31;4947220;28;20043;-70
2022/03/05 00:44:43;;;;;;;8.48;3.25;;;;;;;-2.74;50.77;102397.72;4948360;28;20031;-70
2022/03/05 00:47:09;;;;;;;7.63;2.40;;;;;;;-2.59;51.50;102393.22;4944940;28;20043;-71
2022/03/05 00:49:35;;;;;;;4.63;2.42;;;;;;;-2.30;50.85;102394.34;4952064;28;20155;-70
2022/03/05 00:52:00;;;;;;;6.47;2.35;;;;;;;-2.21;50.50;102389.56;4948474;28;20370;-70
2022/03/05 00:54:26;;;;;;;5.38;2.30;;;;;;;-2.13;50.27;102396.69;4956009;28;20123;-70
2022/03/05 00:56:51;;;;;;;7.30;1.92;;;;;;;-2.08;50.13;102395.16;4946283;28;20035;-71
2022/03/05 00:59:17;;;;;;;5.60;2.88;;;;;;;-1.95;50.44;102402.47;4949152;28;20154;-70
2022/03/05 01:01:42;;;;;;;4.95;2.05;;;;;;;-1.86;49.77;102400.22;4948466;28;20039;-70
2022/03/05 01:04:08;;;;;;;5.88;2.63;;;;;;;-1.88;50.18;102401.88;4950703;28;20504;-70
2022/03/05 01:06:34;;;;;;;5.25;2.58;;;;;;;-1.91;50.07;102404.31;4949670;28;20045;-70
2022/03/05 01:09:01;;;;;;;4.85;2.50;;;;;;;-1.91;50.49;102403.44;4947549;28;20061;-69
2022/03/05 01:11:27;;;;;;;5.07;1.58;;;;;;;-1.78;50.10;102392.81;4952064;28;20030;-69
2022/03/05 01:13:53;;;;;;;8.07;2.70;;;;;;;-1.80;50.41;102392.78;4963913;28;20039;-69
2022/03/05 01:16:18;;;;;;;3.78;1.55;;;;;;;-1.72;49.78;102390.47;4931834;28;20042;-69
2022/03/05 01:18:45;;;;;;;6.60;2.22;;;;;;;-1.83;50.08;102392.63;4945748;28;20039;-70
2022/03/05 01:21:11;;;;;;;4.15;1.48;;;;;;;-1.76;50.37;102395.44;4954569;28;20505;-69
2022/03/05 01:23:36;;;;;;;4.00;2.00;;;;;;;-1.64;50.25;102395.88;4947787;28;20040;-69
2022/03/05 01:26:02;;;;;;;3.63;2.60;;;;;;;-1.69;50.38;102394.81;4948526;28;20590;-69
2022/03/05 01:28:28;;;;;;;6.32;2.00;;;;;;;-1.58;50.08;102390.94;4948267;28;20078;-69
2022/03/05 01:30:54;;;;;;;4.00;2.05;;;;;;;-1.64;50.01;102385.63;4964461;28;20035;-70
2022/03/05 01:33:20;;;;;;;5.00;2.22;;;;;;;-1.57;49.72;102395.25;4947548;28;20411;-69
2022/03/05 01:35:48;;;;;;;4.85;2.10;;;;;;;-1.58;50.03;102390.94;4948188;28;20046;-69
2022/03/05 01:38:15;;;;;;;7.38;2.85;;;;;;;-1.66;50.65;102398.38;4948423;28;20097;-69
2022/03/05 01:40:40;;;;;;;8.52;2.90;;;;;;;-1.63;50.41;102392.47;4947501;28;20198;-70
2022/03/05 01:43:07;;;;;;;7.20;2.60;;;;;;;-1.45;49.96;102393.09;4951270;28;20039;-70
2022/03/05 01:45:33;;;;;;;7.07;2.55;;;;;;;-1.63;50.16;102389.91;4947379;28;20066;-70
2022/03/05 01:47:59;;;;;;;7.13;2.78;;;;;;;-1.53;50.30;102389.44;4949575;28;20043;-70
2022/03/05 01:50:25;;;;;;;4.78;2.88;;;;;;;-1.51;50.20;102392.91;4948762;28;20027;-70
2022/03/05 01:52:51;;;;;;;4.60;2.88;;;;;;;-1.60;50.29;102387.44;4949069;28;20046;-70
2022/03/05 01:55:17;;;;;;;10.52;3.63;;;;;;;-1.67;51.28;102391.47;4954777;28;20385;-69
2022/03/05 01:57:43;;;;;;;5.97;2.83;;;;;;;-1.63;50.97;102393.34;4952654;28;20054;-69
2022/03/05 02:00:11;;;;;;;13.55;3.70;;;;;;;-1.58;50.75;102390.94;4948792;28;20038;-70
2022/03/05 02:02:41;;;;;;;4.57;2.67;;;;;;;-1.80;51.89;102389.31;4947889;28;20045;-74
2022/03/05 02:05:07;;;;;;;4.72;2.88;;;;;;;-1.74;51.38;102389.53;4950581;28;20122;-76
2022/03/05 02:07:33;;;;;;;5.57;3.33;;;;;;;-1.71;51.75;102388.75;4948049;28;20122;-76
2022/03/05 02:09:58;;;;;;;4.75;3.13;;;;;;;-1.77;51.48;102389.44;4964170;28;22526;-76
2022/03/05 02:12:30;;;;;;;12.27;3.85;;;;;;;-1.71;51.11;102386.19;4962962;28;20660;-76
2022/03/05 02:14:56;;;;;;;7.82;3.53;;;;;;;-1.85;51.40;102389.16;4949320;28;20070;-76
2022/03/05 02:17:22;;;;;;;5.90;3.10;;;;;;;-2.04;52.19;102384.19;4948938;28;20065;-76
2022/03/05 02:19:47;;;;;;;8.82;4.22;;;;;;;-1.96;51.57;102381.91;4949589;28;20043;-75
2022/03/05 02:22:13;;;;;;;7.53;3.70;;;;;;;-1.91;51.49;102386.38;4948954;28;20065;-75
2022/03/05 02:24:39;;;;;;;9.55;4.88;;;;;;;-2.18;52.39;102386.22;4947156;28;20109;-76
2022/03/05 02:27:05;;;;;;;4.13;3.40;;;;;;;-2.01;51.92;102385.16;4946022;28;20046;-71
2022/03/05 02:29:32;;;;;;;8.52;4.30;;;;;;;-2.07;52.24;102381.50;4963355;28;20062;-71
2022/03/05 02:31:58;;;;;;;6.93;3.42;;;;;;;-1.98;51.80;102380.97;4945583;28;20038;-71
2022/03/05 02:34:24;;;;;;;7.70;3.22;;;;;;;-1.99;51.66;102382.66;4947005;28;20022;-70
2022/03/05 02:36:50;;;;;;;4.97;3.75;;;;;;;-2.11;52.15;102382.19;4960688;28;20094;-70
2022/03/05 02:39:16;;;;;;;8.38;3.97;;;;;;;-2.06;51.73;102381.56;4951564;28;20035;-73
2022/03/05 02:41:42;;;;;;;9.68;3.83;;;;;;;-2.10;51.65;102381.41;4953307;28;20041;-74
2022/03/05 02:44:09;;;;;;;6.75;4.05;;;;;;;-2.15;51.77;102382.94;4966590;28;20050;-73
2022/03/05 02:46:36;;;;;;;5.90;4.57;;;;;;;-2.15;52.02;102385.50;4952982;28;20393;-73
2022/03/05 02:49:03;;;;;;;9.07;4.15;;;;;;;-2.14;52.20;102377.84;4964669;28;20051;-74
2022/03/05 02:51:29;;;;;;;7.55;4.05;;;;;;;-2.11;52.35;102382.19;4954715;28;20042;-74
2022/03/05 02:53:55;;;;;;;11.52;3.83;;;;;;;-2.04;52.42;102374.81;4949508;28;20093;-74
2022/03/05 02:56:20;;;;;;;8.68;4.38;;;;;;;-2.12;52.48;102377.91;4952320;28;20051;-74
2022/03/05 02:58:46;;;;;;;5.53;3.42;;;;;;;-2.04;52.53;102384.19;4947131;28;20122;-74
2022/03/05 03:01:12;;;;;;;10.68;5.05;;;;;;;-2.14;53.09;102393.22;4966769;28;20106;-73
2022/03/05 03:03:38;;;;;;;8.27;5.43;;;;;;;-2.15;53.01;102380.38;4947671;28;20058;-75
2022/03/05 03:06:05;;;;;;;8.63;4.57;;;;;;;-2.13;52.93;102373.63;4952735;28;20584;-73
2022/03/05 03:08:31;;;;;;;9.98;4.68;;;;;;;-2.21;52.95;102387.00;4948159;28;20570;-71
2022/03/05 03:10:58;;;;;;;14.80;5.50;;;;;;;-2.22;53.05;102390.38;4955882;28;20030;-70
2022/03/05 03:13:23;;;;;;;10.70;5.50;;;;;;;-2.26;52.91;102391.06;4952400;28;20598;-70
2022/03/05 03:15:49;;;;;;;8.30;4.00;;;;;;;-2.46;53.60;102374.09;4965244;28;20045;-70
2022/03/05 03:18:17;;;;;;;7.22;4.43;;;;;;;-2.36;52.95;102378.72;4951494;28;20047;-71
2022/03/05 03:20:43;;;;;;;7.45;4.32;;;;;;;-2.58;53.71;102378.72;4949132;28;20522;-72
2022/03/05 03:23:08;;;;;;;7.22;4.80;;;;;;;-2.55;53.98;102376.31;4951142;28;20124;-71
2022/03/05 03:25:34;;;;;;;5.78;4.55;;;;;;;-2.44;53.68;102372.47;4950038;28;20364;-71
2022/03/05 03:27:59;;;;;;;6.70;4.75;;;;;;;-2.48;53.32;102375.72;4951453;28;20160;-71
2022/03/05 03:30:24;;;;;;;13.63;4.15;;;;;;;-2.41;53.56;102372.56;4948952;28;20062;-71
2022/03/05 03:32:50;;;;;;;9.88;4.07;;;;;;;-2.40;54.06;102379.44;4952044;28;20050;-70
2022/03/05 03:35:17;;;;;;;12.82;4.00;;;;;;;-2.31;53.29;102379.78;4948318;28;20463;-71
2022/03/05 03:37:44;;;;;;;8.77;3.78;;;;;;;-2.38;53.46;102388.06;4966796;28;20401;-74
2022/03/05 03:40:12;;;;;;;6.65;4.47;;;;;;;-2.17;53.01;102387.13;4951018;28;20452;-75
2022/03/05 03:42:38;;;;;;;7.13;4.00;;;;;;;-2.17;52.99;102387.13;4954582;28;20066;-76
2022/03/05 03:45:06;;;;;;;7.60;3.75;;;;;;;-2.28;52.66;102386.72;4963410;28;20035;-73
2022/03/05 03:47:31;;;;;;;8.98;3.92;;;;;;;-2.30;52.86;102391.78;4966068;28;20043;-74
2022/03/05 03:49:57;;;;;;;10.60;4.60;;;;;;;-2.30;52.55;102391.78;4949150;28;20114;-73
2022/03/05 03:52:23;;;;;;;13.13;4.60;;;;;;;-2.29;52.99;102397.75;4950657;28;20043;-72
2022/03/05 03:54:49;;;;;;;8.23;4.45;;;;;;;-2.32;52.53;102389.97;4949458;28;20074;-70
2022/03/05 03:57:15;;;;;;;9.55;3.95;;;;;;;-2.33;52.89;102396.78;4948559;28;20042;-70
2022/03/05 03:59:41;;;;;;;7.15;3.72;;;;;;;-2.35;52.85;102387.31;4948528;28;20054;-70
2022/03/05 04:02:08;;;;;;;5.00;2.80;;;;;;;-2.35;52.50;102383.06;4949189;28;20524;-70
2022/03/05 04:04:34;;;;;;;9.07;4.07;;;;;;;-2.43;53.13;102389.56;4949593;28;20157;-69
2022/03/05 04:09:43;;;;;;;7.15;4.22;;;;;;;-2.53;53.30;102385.78;4946296;28;20614;-73
2022/03/05 04:12:09;;;;;;;5.53;4.13;;;;;;;-2.52;53.66;102381.53;4965055;28;20051;-73
2022/03/05 04:14:36;;;;;;;5.18;3.90;;;;;;;-2.53;53.46;102390.03;4966147;28;20038;-71
2022/03/05 04:17:01;;;;;;;13.07;4.32;;;;;;;-2.44;53.31;102388.69;4950551;28;20085;-73
2022/03/05 04:19:27;;;;;;;6.32;3.95;;;;;;;-2.42;53.33;102381.94;4951303;28;20034;-73
2022/03/05 04:21:52;;;;;;;9.13;4.53;;;;;;;-2.48;53.12;102386.81;4946811;28;20066;-74
2022/03/05 04:24:18;;;;;;;9.38;4.35;;;;;;;-2.50;53.54;102385.03;4951227;28;20066;-70
2022/03/05 04:26:43;;;;;;;8.90;4.82;;;;;;;-2.51;53.63;102385.84;4949745;28;20445;-69
2022/03/05 04:29:09;;;;;;;9.10;3.78;;;;;;;-2.50;53.33;102382.47;4949842;28;20038;-70
2022/03/05 04:31:34;;;;;;;8.52;4.07;;;;;;;-2.56;53.72;102382.22;4951507;28;20126;-69
2022/03/05 04:34:00;;;;;;;6.63;3.65;;;;;;;-2.58;53.66;102386.41;4951490;28;20041;-70
2022/03/05 04:36:26;;;;;;;6.45;3.67;;;;;;;-2.48;53.09;102385.97;4965116;28;20039;-70
2022/03/05 04:38:51;;;;;;;5.38;3.88;;;;;;;-2.56;53.57;102382.22;4949153;28;20035;-70
2022/03/05 04:41:17;;;;;;;9.48;3.88;;;;;;;-2.69;53.54;102381.75;4957489;28;20480;-69
2022/03/05 04:43:42;;;;;;;9.98;4.05;;;;;;;-2.58;53.22;102383.84;4948069;28;20050;-69
2022/03/05 04:46:08;;;;;;;9.02;4.28;;;;;;;-2.51;53.25;102383.28;4949085;28;20043;-69
2022/03/05 04:48:33;;;;;;;5.97;3.83;;;;;;;-2.53;52.70;102383.22;4947759;28;20043;-69
2022/03/05 04:50:59;;;;;;;9.05;3.75;;;;;;;-2.68;53.03;102378.38;4949347;28;20042;-69
2022/03/05 04:53:24;;;;;;;11.90;4.38;;;;;;;-2.58;52.75;102378.72;4948817;28;20064;-70
2022/03/05 04:55:50;;;;;;;9.80;3.90;;;;;;;-2.66;52.70;102387.00;4950484;28;20170;-69
2022/03/05 04:58:17;;;;;;;8.10;3.72;;;;;;;-2.72;52.51;102376.50;4947951;28;20141;-70
2022/03/05 05:00:42;;;;;;;5.40;3.28;;;;;;;-2.90;52.85;102376.66;4961439;28;20042;-70
2022/03/05 05:03:08;;;;;;;8.35;4.03;;;;;;;-2.85;53.20;102379.38;4948167;28;20058;-69
2022/03/05 05:05:33;;;;;;;7.32;3.95;;;;;;;-2.86;53.22;102377.66;4948366;28;20034;-71
2022/03/05 05:07:59;;;;;;;7.38;4.03;;;;;;;-2.92;53.39;102377.41;4949636;28;20045;-72
2022/03/05 05:10:24;;;;;;;6.57;4.20;;;;;;;-2.91;53.66;102382.59;4950449;28;20090;-72
2022/03/05 05:12:50;;;;;;;5.70;3.70;;;;;;;-3.01;53.90;102383.03;4938394;28;20824;-72
2022/03/05 05:15:15;;;;;;;5.50;3.65;;;;;;;-2.87;53.43;102378.44;4947714;28;20632;-71
2022/03/05 05:17:41;;;;;;;4.95;2.92;;;;;;;-2.93;53.61;102388.47;4961167;28;20043;-71
2022/03/05 05:20:08;;;;;;;4.07;3.60;;;;;;;-2.93;53.56;102401.25;4948057;28;20121;-71
2022/03/05 05:22:34;;;;;;;7.80;3.60;;;;;;;-3.03;53.76;102388.91;4953115;28;20152;-72
2022/03/05 05:25:01;;;;;;;6.85;3.50;;;;;;;-2.76;52.79;102390.03;4949033;28;20031;-71
2022/03/05 05:27:27;;;;;;;4.95;2.85;;;;;;;-2.77;52.62;102397.63;4947104;28;20035;-74
2022/03/05 05:29:53;;;;;;;8.10;3.50;;;;;;;-2.87;52.99;102406.59;4964152;28;20045;-73
2022/03/05 05:32:19;;;;;;;5.00;2.92;;;;;;;-2.78;52.53;102394.19;4963067;28;20053;-72
2022/03/05 05:34:45;;;;;;;7.90;2.75;;;;;;;-2.92;52.87;102406.41;4954486;28;20032;-71
2022/03/05 05:37:11;;;;;;;6.60;2.95;;;;;;;-2.94;52.93;102402.06;4961291;28;20581;-73
2022/03/05 05:39:37;;;;;;;8.00;3.42;;;;;;;-2.89;52.67;102405.69;4950843;28;20631;-77
2022/03/05 05:42:04;;;;;;;5.57;2.63;;;;;;;-2.99;52.67;102416.34;4948289;28;20043;-70
2022/03/05 05:44:29;;;;;;;6.28;3.13;;;;;;;-2.98;52.81;102411.31;4952250;28;20113;-73
2022/03/05 05:46:55;;;;;;;8.20;3.03;;;;;;;-2.96;52.30;102412.25;4963282;28;20165;-73
2022/03/05 05:49:21;;;;;;;8.32;3.05;;;;;;;-3.10;52.67;102414.22;4948931;28;20459;-73
2022/03/05 05:51:46;;;;;;;5.10;2.67;;;;;;;-2.93;52.45;102417.47;4962743;28;20219;-71
2022/03/05 05:54:12;;;;;;;6.40;2.17;;;;;;;-3.11;52.70;102422.72;4949010;28;20038;-72
2022/03/05 05:56:37;;;;;;;7.38;2.55;;;;;;;-3.00;52.28;102412.94;4948093;28;20097;-71
2022/03/05 05:59:06;;;;;;;5.00;2.60;;;;;;;-3.05;52.34;102412.75;4962012;28;20335;-71
2022/03/05 06:01:31;;;;;;;6.93;2.95;;;;;;;-3.06;52.75;102420.34;4961853;28;20110;-70
2022/03/05 06:03:58;;;;;;;5.13;2.03;;;;;;;-2.99;52.48;102419.78;4947352;28;20039;-70
2022/03/05 06:06:23;;;;;;;3.78;2.25;;;;;;;-3.04;52.68;102418.72;4946563;28;20042;-70
2022/03/05 06:08:50;;;;;;;5.85;2.25;;;;;;;-2.97;52.72;102417.28;4960891;28;20047;-74
2022/03/05 06:11:16;;;;;;;7.20;2.85;;;;;;;-3.02;52.38;102427.34;4947281;28;20113;-72
2022/03/05 06:13:42;;;;;;;3.13;2.17;;;;;;;-2.99;52.44;102437.69;4945477;28;20504;-71
2022/03/05 06:16:08;;;;;;;7.97;3.15;;;;;;;-3.03;52.59;102445.16;4953584;28;20443;-71
2022/03/05 06:18:34;;;;;;;3.72;2.10;;;;;;;-2.88;52.14;102438.13;4950165;28;20046;-72
2022/03/05 06:21:00;;;;;;;3.95;2.08;;;;;;;-2.86;51.77;102442.50;4951005;28;20061;-72
2022/03/05 06:23:26;;;;;;;5.00;1.67;;;;;;;-2.81;51.72;102439.25;4950381;28;20047;-69
2022/03/05 06:25:51;;;;;;;5.18;1.98;;;;;;;-2.84;51.81;102442.56;4967574;28;20027;-74
2022/03/05 06:28:17;;;;;;;4.90;2.05;;;;;;;-2.81;51.57;102442.69;4951026;28;20047;-71
2022/03/05 06:30:43;;;;;;;4.30;1.80;;;;;;;-2.95;51.79;102443.81;4949956;28;20122;-71
2022/03/05 06:33:09;;;;;;;3.97;1.95;;;;;;;-2.83;51.36;102439.19;4952303;28;20138;-71
2022/03/05 06:35:34;;;;;;;5.30;1.95;;;;;;;-2.84;51.06;102445.13;4951396;28;20035;-72
2022/03/05 06:38:00;;;;;;;3.08;1.63;;;;;;;-2.98;51.47;102448.78;4947852;28;20070;-71
2022/03/05 06:40:26;;;;;;;2.58;1.45;;;;;;;-2.82;50.97;102440.94;4951925;28;20097;-72
2022/03/05 06:42:51;;;;;;;3.03;1.52;;;;;;;-2.81;50.77;102452.91;4950502;28;20065;-72
2022/03/05 06:45:17;;;;;;;5.43;1.83;;;;;;;-2.90;50.90;102457.66;4951233;28;20357;-71
2022/03/05 06:47:43;;;;;;;2.25;1.70;;;;;;;-2.80;50.48;102453.78;4936099;28;20158;-71
2022/03/05 06:50:10;;;;;;;2.88;1.55;;;;;;;-2.86;50.67;102464.66;4953355;28;20134;-71
2022/03/05 06:52:38;;;;;;;2.60;0.95;;;;;;;-2.78;50.50;102462.41;4949090;28;20352;-71
2022/03/05 06:55:06;;;;;;;5.05;1.27;;;;;;;-2.58;50.36;102456.44;4950169;28;20532;-71
2022/03/05 06:57:32;;;;;;;3.05;1.70;;;;;;;-2.58;49.96;102461.53;4945894;28;20514;-71
2022/03/05 06:59:57;;;;;;;3.30;1.75;;;;;;;-2.60;50.04;102459.72;4947999;28;20043;-71
2022/03/05 07:02:23;;;;;;;5.35;2.00;;;;;;;-2.51;49.98;102460.09;4949839;28;20050;-72
2022/03/05 07:04:49;;;;;;;3.67;1.58;;;;;;;-2.50;50.04;102464.41;4952562;28;20045;-71
2022/03/05 07:07:15;;;;;;;2.83;1.20;;;;;;;-2.32;49.34;102454.88;4950280;28;20617;-71
2022/03/05 07:09:40;;;;;;;2.50;1.60;;;;;;;-2.35;49.53;102461.56;4948625;28;20687;-71
2022/03/05 07:12:06;;;;;;;5.68;1.83;;;;;;;-1.67;49.07;102468.41;4951905;28;20968;-71
2022/03/05 07:14:32;;;;;;;3.95;1.65;;;;;;;0.22;44.98;102464.28;4950706;28;20114;-71
2022/03/05 07:16:57;;;;;;;2.15;1.45;;;;;;;1.57;40.27;102455.75;4964889;28;20098;-72
2022/03/05 07:19:23;;;;;;;3.65;1.67;;;;;;;2.55;38.05;102460.38;4953087;28;20072;-71
2022/03/05 07:21:49;;;;;;;5.13;1.27;;;;;;;2.87;36.98;102460.97;4948421;28;20565;-71
2022/03/05 07:24:15;;;;;;;4.10;1.45;;;;;;;3.56;35.41;102462.13;4954981;28;20047;-72
2022/03/05 07:26:41;;;;;;;3.45;1.50;;;;;;;4.31;34.66;102459.63;4950605;28;20094;-71
2022/03/05 07:29:06;;;;;;;2.33;0.80;;;;;;;4.95;32.15;102459.47;4950424;28;20046;-72
2022/03/05 07:31:32;;;;;;;2.63;1.15;;;;;;;5.09;32.37;102456.97;4948757;28;20063;-72
2022/03/05 07:33:58;;;;;;;3.17;1.13;;;;;;;5.14;32.25;102460.47;4950033;28;20398;-72
2022/03/05 07:36:24;;;;;;;4.93;1.02;;;;;;;5.65;30.63;102453.91;4950628;28;20042;-71
2022/03/05 07:38:51;;;;;;;2.65;1.27;;;;;;;5.49;31.55;102457.28;4946636;28;20117;-72
2022/03/05 07:41:17;;;;;;;5.47;1.00;;;;;;;5.90;30.64;102455.78;4948976;28;20440;-72
2022/03/05 07:43:43;;;;;;;4.38;1.10;;;;;;;5.89;31.25;102457.53;4947772;28;20437;-72
2022/03/05 07:46:09;;;;;;;3.40;0.98;;;;;;;6.62;29.56;102456.03;4949787;28;20493;-71
2022/03/05 07:48:34;;;;;;;1.95;0.85;;;;;;;7.12;29.66;102463.03;4952817;28;20090;-72
2022/03/05 07:51:02;;;;;;;3.65;1.13;;;;;;;7.62;29.11;102454.31;4951938;28;20027;-72
2022/03/05 07:53:28;;;;;;;3.10;1.00;;;;;;;8.70;27.70;102459.06;4946003;28;20265;-72
2022/03/05 07:55:54;;;;;;;2.10;0.90;;;;;;;8.92;26.76;102455.47;4948727;28;20415;-72
2022/03/05 07:58:19;;;;;;;3.38;1.40;;;;;;;9.73;25.86;102451.19;4948125;28;20074;-72
2022/03/05 08:00:45;;;;;;;3.70;0.93;;;;;;;10.16;25.64;102461.16;4948633;28;20492;-72
2022/03/05 08:03:10;;;;;;;3.28;1.33;;;;;;;11.23;23.08;102457.81;4949828;28;20389;-71
2022/03/05 08:05:36;;;;;;;4.20;1.33;;;;;;;11.62;22.53;102451.00;4950371;28;20148;-72
2022/03/05 08:08:02;;;;;;;3.25;1.10;;;;;;;11.32;22.35;102462.88;4950804;28;20031;-72
2022/03/05 08:10:27;;;;;;;4.60;1.52;;;;;;;10.37;24.25;102456.50;4949208;28;20042;-72
2022/03/05 08:12:53;;;;;;;3.05;0.80;;;;;;;10.70;23.32;102467.38;4947506;28;20043;-72
2022/03/05 08:15:19;;;;;;;2.15;1.10;;;;;;;10.99;23.43;102462.56;4952122;28;20093;-72
2022/03/05 08:17:51;;;;;;;1.73;0.80;;;;;;;11.57;23.35;102462.44;4946503;28;20136;-72
2022/03/05 08:20:17;;;;;;;2.08;0.77;;;;;;;10.98;22.83;102471.31;4948759;28;20202;-73
2022/03/05 08:22:42;;;;;;;4.38;1.00;;;;;;;10.72;24.98;102468.22;4951531;28;20415;-72
2022/03/05 08:25:08;;;;;;;2.72;1.38;;;;;;;10.60;23.71;102466.66;4954437;28;20035;-72
2022/03/05 08:27:33;;;;;;;5.53;1.73;;;;;;;10.31;23.96;102469.69;4952334;28;20043;-72
2022/03/05 08:29:59;;;;;;;2.58;0.93;;;;;;;10.49;24.42;102461.59;4949823;28;20144;-72
2022/03/05 08:32:24;;;;;;;3.25;1.15;;;;;;;9.84;25.05;102464.16;4949649;28;20043;-72
2022/03/05 08:34:50;;;;;;;3.13;0.98;;;;;;;10.06;25.40;102463.88;4964119;28;21092;-72
2022/03/05 08:37:15;;;;;;;3.40;1.05;;;;;;;10.95;23.30;102467.88;4964274;28;20113;-73
2022/03/05 08:39:40;;;;;;;3.75;1.10;;;;;;;11.18;23.85;102467.53;4951977;28;20031;-72
2022/03/05 08:42:07;;;;;;;2.47;0.85;;;;;;;11.39;22.38;102472.34;4964146;28;20106;-72
2022/03/05 08:44:33;;;;;;;5.05;1.20;;;;;;;11.53;22.58;102459.03;4950983;28;20158;-72
2022/03/05 08:46:58;;;;;;;3.35;0.77;;;;;;;10.75;23.71;102470.78;4949220;28;20574;-72
2022/03/05 08:49:24;;;;;;;4.13;1.30;;;;;;;10.48;23.65;102470.31;4952612;28;20047;-72
2022/03/05 08:51:50;;;;;;;1.98;0.90;;;;;;;10.55;24.18;102458.03;4949360;28;20539;-72
2022/03/05 08:54:17;;;;;;;6.57;1.38;;;;;;;10.05;24.27;102457.81;4954935;28;20502;-72
2022/03/05 08:56:43;;;;;;;5.05;0.95;;;;;;;9.27;25.52;102464.72;4952037;28;20499;-72
2022/03/05 08:59:09;;;;;;;3.63;1.50;;;;;;;8.48;26.06;102466.16;4949159;28;20047;-72
2022/03/05 09:01:34;;;;;;;2.58;1.20;;;;;;;8.45;26.91;102466.16;4951514;28;20039;-72
2022/03/05 09:03:59;;;;;;;2.50;1.15;;;;;;;8.23;26.71;102453.25;4947922;28;20539;-72
2022/03/05 09:06:25;;;;;;;4.00;1.88;;;;;;;8.31;26.84;102461.00;4951071;28;20404;-72
2022/03/05 09:08:50;;;;;;;4.65;1.50;;;;;;;7.59;27.52;102461.28;4948597;28;20375;-72
2022/03/05 09:11:17;;;;;;;2.78;1.75;;;;;;;6.71;29.59;102461.28;4965577;28;20114;-72
2022/03/05 09:13:42;;;;;;;3.83;2.25;;;;;;;6.30;30.36;102449.06;4962874;28;20227;-72
2022/03/05 09:16:08;;;;;;;2.33;1.45;;;;;;;6.16;29.97;102461.09;4949558;28;20047;-72
2022/03/05 09:18:33;;;;;;;5.80;2.20;;;;;;;5.81;29.96;102454.88;4946068;28;20036;-72
2022/03/05 09:20:58;;;;;;;7.57;2.10;;;;;;;5.67;30.64;102457.38;4951187;28;20125;-71
2022/03/05 09:23:24;;;;;;;4.85;1.30;;;;;;;5.82;29.50;102463.53;4949043;28;20058;-71
2022/03/05 09:25:50;;;;;;;2.95;1.65;;;;;;;6.25;29.27;102458.53;4950537;28;20484;-72
2022/03/05 09:28:15;;;;;;;4.63;1.40;;;;;;;6.42;28.83;102469.88;4951559;28;20046;-72
2022/03/05 09:30:40;;;;;;;3.33;1.60;;;;;;;6.44;28.46;102460.38;4948253;28;20532;-72
2022/03/05 09:33:07;;;;;;;4.40;2.03;;;;;;;6.07;29.02;102460.19;4954238;28;20431;-72
2022/03/05 09:35:33;;;;;;;3.15;1.80;;;;;;;5.93;28.50;102464.47;4945678;28;20118;-71
2022/03/05 09:37:58;;;;;;;5.18;2.72;;;;;;;5.79;28.33;102463.50;4949398;28;20137;-71
2022/03/05 09:40:24;;;;;;;5.03;2.22;;;;;;;5.80;28.79;102467.84;4947006;28;20066;-71
2022/03/05 09:42:49;;;;;;;5.18;2.78;;;;;;;5.98;28.96;102461.88;4951011;28;20098;-72
2022/03/05 09:45:15;;;;;;;5.85;2.63;;;;;;;5.63;28.50;102458.22;4952641;28;20460;-72
2022/03/05 09:47:42;;;;;;;6.57;2.50;;;;;;;5.93;26.87;102459.28;4946777;28;20074;-72
2022/03/05 09:50:09;;;;;;;5.65;2.88;;;;;;;5.24;28.51;102457.09;4964059;28;20047;-71
2022/03/05 09:52:35;;;;;;;7.30;3.33;;;;;;;5.43;28.19;102457.22;4948473;28;20043;-71
2022/03/05 09:55:02;;;;;;;7.30;3.17;;;;;;;5.84;28.32;102459.22;4949379;28;20158;-72
2022/03/05 09:57:27;;;;;;;7.78;3.45;;;;;;;6.47;28.76;102451.72;4946481;28;20570;-72
2022/03/05 09:59:53;;;;;;;5.07;3.10;;;;;;;6.19;27.66;102455.91;4950339;28;20137;-71
2022/03/05 10:02:18;;;;;;;19.70;5.80;;;;;;;5.67;29.06;102459.13;4947616;28;20631;-72
2022/03/05 10:04:44;;;;;;;9.00;3.28;;;;;;;5.94;28.79;102461.00;4948676;28;20631;-72
2022/03/05 10:07:17;;;;;;;8.68;3.90;;;;;;;5.50;28.75;102447.78;4949983;28;20047;-72
2022/03/05 10:09:48;;;;;;;7.45;4.43;;;;;;;5.60;29.57;102458.22;4963559;28;20035;-72
2022/03/05 10:12:33;;;;;;;12.13;5.40;;;;;;;5.29;29.92;102458.88;4945380;28;20043;-72
2022/03/05 10:15:13;;;;;;;8.18;4.20;;;;;;;5.57;28.27;102458.22;4942815;28;20054;-72
2022/03/05 10:17:59;;;;;;;9.07;4.55;;;;;;;5.53;29.40;102456.44;4941211;28;20589;-72
2022/03/05 10:20:30;;;;;;;9.55;4.93;;;;;;;5.55;28.42;102457.34;4959791;28;20723;-71
2022/03/05 10:23:07;;;;;;;7.95;4.60;;;;;;;4.76;30.21;102452.34;4959147;28;20041;-71
2022/03/05 10:25:42;;;;;;;9.05;4.07;;;;;;;4.96;29.32;102445.63;4941971;28;20105;-71
2022/03/05 10:28:16;;;;;;;9.88;4.05;;;;;;;4.88;29.68;102446.41;4949487;28;20400;-71
2022/03/05 10:30:45;;;;;;;13.13;4.90;;;;;;;4.69;29.84;102451.41;4943999;28;20039;-71
2022/03/05 10:33:24;;;;;;;6.72;3.60;;;;;;;5.11;29.18;102449.22;4945131;28;20480;-72
2022/03/05 10:35:50;;;;;;;11.10;4.82;;;;;;;5.01;29.55;102450.84;4943764;28;20468;-71
2022/03/05 10:38:15;;;;;;;9.40;5.32;;;;;;;5.53;28.78;102447.81;4942950;28;20130;-71
2022/03/05 10:40:41;;;;;;;8.10;3.92;;;;;;;5.61;28.60;102448.69;4944119;28;20031;-71
2022/03/05 10:43:08;;;;;;;7.28;3.63;;;;;;;5.66;28.73;102447.88;4941956;28;20089;-71
2022/03/05 10:45:55;;;;;;;9.27;4.38;;;;;;;5.19;28.52;102437.19;4942945;28;20500;-72
2022/03/05 10:48:29;;;;;;;8.52;3.95;;;;;;;5.86;28.83;102447.13;4942641;28;20051;-71
2022/03/05 10:51:04;;;;;;;12.32;5.32;;;;;;;5.60;28.15;102445.25;4942545;28;20335;-71
2022/03/05 10:53:36;;;;;;;9.10;4.07;;;;;;;5.99;28.88;102448.91;4940521;28;20495;-71
2022/03/05 10:56:20;;;;;;;7.25;4.22;;;;;;;5.96;28.74;102443.69;4941643;28;20291;-71
2022/03/05 10:59:25;;;;;;;11.15;5.00;;;;;;;6.79;27.99;102446.56;4941205;28;20111;-71
2022/03/05 11:01:50;;;;;;;7.03;3.65;;;;;;;6.85;27.29;102449.16;4940983;28;20046;-72
2022/03/05 11:04:15;;;;;;;10.10;4.43;;;;;;;6.36;27.14;102443.88;4947225;28;20041;-71
2022/03/05 11:06:43;;;;;;;6.78;5.10;;;;;;;5.95;27.25;102441.97;4958421;28;20042;-71
2022/03/05 11:09:13;;;;;;;8.07;4.07;;;;;;;5.43;28.24;102444.28;4962662;28;20098;-71
2022/03/05 11:11:41;;;;;;;9.50;4.03;;;;;;;5.10;27.77;102438.00;4960255;28;20066;-71
2022/03/05 11:14:11;;;;;;;8.27;3.88;;;;;;;5.67;27.47;102441.81;4943705;28;20090;-71
2022/03/05 11:16:37;;;;;;;8.07;4.18;;;;;;;5.86;27.13;102441.94;4944471;28;20030;-71
2022/03/05 11:19:03;;;;;;;8.32;4.78;;;;;;;5.50;28.25;102438.25;4921957;28;1114039;-72
2022/03/05 11:21:29;;;;;;;8.40;3.70;;;;;;;5.14;27.75;102433.69;4950349;28;20038;-71
2022/03/05 11:23:58;;;;;;;8.38;3.97;;;;;;;4.58;28.71;102437.47;4957427;28;20038;-71
2022/03/05 11:26:28;;;;;;;9.88;5.65;;;;;;;5.12;28.41;102438.84;4948288;28;20093;-71